createdAt,value
2019-01-21T00:01:37.721Z,33.03
2019-01-21T00:04:08.510Z,32.03
2019-01-21T00:06:38.936Z,30.27
2019-01-21T00:09:09.828Z,30.37
2019-01-21T00:11:40.399Z,31.73
2019-01-21T00:14:10.910Z,29.00
2019-01-21T00:16:41.327Z,29.47
2019-01-21T00:19:11.779Z,29.97
2019-01-21T00:21:42.203Z,32.23
2019-01-21T00:24:12.661Z,31.43
2019-01-21T00:26:43.169Z,30.77
2019-01-21T00:29:13.600Z,30.23
2019-01-21T00:31:44.054Z,29.87
2019-01-21T00:34:14.463Z,30.13
2019-01-21T00:36:44.908Z,30.20
2019-01-21T00:39:15.357Z,30.17
2019-01-21T00:41:45.763Z,30.57
2019-01-21T00:44:16.211Z,30.17
2019-01-21T00:46:46.681Z,29.03
2019-01-21T00:49:17.110Z,30.10
2019-01-21T00:51:47.533Z,32.07
2019-01-21T00:54:17.996Z,32.17
2019-01-21T00:56:48.503Z,32.80
2019-01-21T00:59:19.019Z,31.27
2019-01-21T01:01:49.440Z,28.30
2019-01-21T01:04:19.871Z,27.07
2019-01-21T01:06:50.370Z,25.20
2019-01-21T01:09:20.783Z,24.27
2019-01-21T01:11:51.227Z,23.90
2019-01-21T01:14:21.674Z,23.77
2019-01-21T01:16:52.079Z,27.03
2019-01-21T01:19:22.546Z,27.87
2019-01-21T01:21:52.961Z,30.13
2019-01-21T01:24:23.424Z,30.27
2019-01-21T01:26:53.854Z,29.63
2019-01-21T01:29:24.372Z,29.40
2019-01-21T01:31:54.796Z,26.10
2019-01-21T01:34:25.203Z,27.77
2019-01-21T01:36:55.690Z,27.60
2019-01-21T01:39:26.084Z,27.17
2019-01-21T01:41:56.650Z,27.63
2019-01-21T01:44:27.544Z,27.13
2019-01-21T01:46:57.997Z,26.37
2019-01-21T01:49:28.420Z,26.80
2019-01-21T01:51:58.835Z,28.63
2019-01-21T01:54:29.295Z,28.27
2019-01-21T01:56:59.977Z,28.90
2019-01-21T01:59:30.439Z,30.00
2019-01-21T02:02:00.951Z,28.63
2019-01-21T02:04:31.358Z,27.37
2019-01-21T02:07:01.863Z,27.10
2019-01-21T02:09:32.323Z,28.03
2019-01-21T02:12:02.838Z,28.27
2019-01-21T02:14:33.247Z,27.60
2019-01-21T02:17:03.730Z,28.87
2019-01-21T02:19:36.354Z,27.67
2019-01-21T02:22:06.894Z,28.27
2019-01-21T02:24:41.529Z,27.93
2019-01-21T02:27:21.635Z,27.57
2019-01-21T02:30:26.508Z,28.13
2019-01-21T02:33:58.564Z,27.90
2019-01-21T02:37:10.159Z,28.40
2019-01-21T02:39:56.661Z,32.43
2019-01-21T02:43:01.616Z,28.50
2019-01-21T02:45:55.515Z,29.83
2019-01-21T02:48:52.721Z,28.60
2019-01-21T02:51:50.726Z,29.63
2019-01-21T02:54:48.695Z,27.57
2019-01-21T02:57:55.799Z,28.90
2019-01-21T03:00:51.481Z,28.20
2019-01-21T03:03:39.707Z,27.63
2019-01-21T03:06:44.514Z,27.93
2019-01-21T03:09:46.926Z,26.63
2019-01-21T03:12:56.214Z,28.30
2019-01-21T03:16:02.949Z,28.33
2019-01-21T03:19:15.552Z,26.70
2019-01-21T03:22:14.146Z,27.90
2019-01-21T03:25:27.212Z,28.30
2019-01-21T03:28:26.078Z,26.80
2019-01-21T03:32:01.665Z,26.23
2019-01-21T03:35:11.345Z,25.83
2019-01-21T03:38:15.884Z,28.27
2019-01-21T03:41:10.110Z,25.57
2019-01-21T03:44:12.494Z,26.17
2019-01-21T03:47:05.629Z,26.83
2019-01-21T03:49:56.707Z,24.73
2019-01-21T03:52:50.724Z,25.57
2019-01-21T03:55:21.497Z,26.40
2019-01-21T03:58:40.626Z,24.80
2019-01-21T04:01:32.126Z,25.10
2019-01-21T04:04:43.778Z,25.10
2019-01-21T04:07:43.556Z,25.20
2019-01-21T04:10:46.595Z,26.73
2019-01-21T04:14:03.705Z,25.40
2019-01-21T04:17:08.990Z,24.30
2019-01-21T04:20:03.792Z,24.53
2019-01-21T04:22:58.509Z,27.87
2019-01-21T04:26:12.306Z,26.40
2019-01-21T04:29:02.952Z,26.23
2019-01-21T04:32:12.369Z,26.37
2019-01-21T04:35:09.363Z,25.43
2019-01-21T04:38:11.842Z,25.37
2019-01-21T04:41:47.426Z,26.97
2019-01-21T04:44:53.251Z,26.37
2019-01-21T04:47:58.498Z,26.07
2019-01-21T04:51:15.670Z,27.03
2019-01-21T04:54:15.743Z,26.67
2019-01-21T04:57:12.159Z,27.93
2019-01-21T05:00:32.057Z,26.83
2019-01-21T05:03:54.010Z,25.80
2019-01-21T05:07:23.166Z,25.87
2019-01-21T05:10:37.397Z,28.50
2019-01-21T05:13:33.203Z,32.27
2019-01-21T05:16:36.883Z,38.57
2019-01-21T05:19:32.370Z,32.33
2019-01-21T05:23:04.788Z,29.90
2019-01-21T05:26:06.820Z,32.17
2019-01-21T05:29:06.234Z,32.10
2019-01-21T05:32:24.631Z,32.33
2019-01-21T05:35:53.501Z,30.60
2019-01-21T05:38:51.182Z,29.10
2019-01-21T05:42:23.480Z,27.20
2019-01-21T05:45:36.132Z,26.60
2019-01-21T05:48:59.300Z,25.67
2019-01-21T05:52:13.536Z,26.20
2019-01-21T05:55:06.566Z,25.97
2019-01-21T05:58:20.472Z,36.97
2019-01-21T06:01:58.603Z,32.17
2019-01-21T06:04:48.238Z,28.23
2019-01-21T06:07:54.632Z,24.87
2019-01-21T06:10:40.847Z,24.53
2019-01-21T06:13:56.286Z,27.40
2019-01-21T06:16:51.913Z,25.83
2019-01-21T06:19:59.102Z,26.47
2019-01-21T06:23:03.080Z,24.50
2019-01-21T06:26:38.536Z,26.57
2019-01-21T06:29:59.258Z,26.20
2019-01-21T06:33:15.437Z,27.60
2019-01-21T06:36:41.843Z,28.37
2019-01-21T06:39:41.090Z,29.20
2019-01-21T06:42:53.831Z,33.30
2019-01-21T06:46:10.878Z,25.33
2019-01-21T06:49:13.540Z,21.70
2019-01-21T06:52:29.746Z,20.53
2019-01-21T06:55:36.270Z,19.10
2019-01-21T06:58:53.126Z,19.57
2019-01-21T07:01:50.215Z,21.00
2019-01-21T07:05:02.372Z,20.07
2019-01-21T07:08:03.260Z,20.63
2019-01-21T07:11:02.307Z,22.63
2019-01-21T07:14:10.233Z,25.00
2019-01-21T07:17:01.793Z,38.73
2019-01-21T07:20:01.397Z,34.50
2019-01-21T07:22:54.931Z,26.27
2019-01-21T07:26:14.623Z,23.87
2019-01-21T07:29:21.473Z,20.70
2019-01-21T07:32:17.143Z,20.67
2019-01-21T07:35:24.468Z,21.23
2019-01-21T07:38:31.575Z,21.40
2019-01-21T07:41:27.345Z,18.40
2019-01-21T07:44:24.027Z,22.07
2019-01-21T07:47:39.782Z,24.67
2019-01-21T07:51:08.999Z,20.30
2019-01-21T07:54:25.607Z,23.87
2019-01-21T07:57:40.184Z,21.93
2019-01-21T08:00:41.017Z,20.70
2019-01-21T08:03:56.509Z,24.00
2019-01-21T08:07:07.549Z,23.07
2019-01-21T08:10:10.918Z,20.23
2019-01-21T08:13:16.678Z,23.50
2019-01-21T08:16:33.695Z,21.93
2019-01-21T08:19:49.376Z,24.87
2019-01-21T08:22:51.314Z,25.80
2019-01-21T08:26:17.231Z,28.60
2019-01-21T08:29:29.510Z,27.50
2019-01-21T08:32:37.010Z,27.40
2019-01-21T08:35:42.756Z,29.43
2019-01-21T08:39:14.706Z,31.53
2019-01-21T08:42:21.111Z,31.57
2019-01-21T08:45:44.040Z,33.37
2019-01-21T08:48:39.657Z,33.27
2019-01-21T08:51:33.571Z,34.83
2019-01-21T08:54:56.746Z,35.30
2019-01-21T08:58:06.568Z,36.23
2019-01-21T09:00:59.208Z,36.03
2019-01-21T09:03:42.071Z,36.07
2019-01-21T09:07:09.027Z,38.33
2019-01-21T09:09:50.031Z,38.77
2019-01-21T09:13:07.198Z,44.47
2019-01-21T09:16:21.710Z,43.37
2019-01-21T09:19:12.577Z,45.50
2019-01-21T09:22:13.477Z,46.17
2019-01-21T09:25:13.798Z,48.27
2019-01-21T09:28:01.231Z,46.67
2019-01-21T09:30:51.970Z,45.63
2019-01-21T09:33:52.061Z,42.30
2019-01-21T09:36:31.528Z,42.23
2019-01-21T09:39:29.268Z,42.27
2019-01-21T09:42:22.402Z,43.43
2019-01-21T09:45:13.965Z,40.87
2019-01-21T09:47:42.449Z,38.90
2019-01-21T09:50:13.185Z,35.30
2019-01-21T09:52:44.603Z,34.77
2019-01-21T09:55:16.512Z,28.97
2019-01-21T09:57:47.916Z,25.67
2019-01-21T10:00:20.002Z,25.60
2019-01-21T10:02:52.395Z,25.07
2019-01-21T10:05:26.096Z,23.37
2019-01-21T10:08:18.189Z,23.23
2019-01-21T10:11:09.547Z,20.70
2019-01-21T10:14:19.744Z,21.37
2019-01-21T10:17:08.150Z,21.37
2019-01-21T10:20:12.709Z,19.83
2019-01-21T10:23:19.516Z,22.83
2019-01-21T10:26:33.559Z,22.47
2019-01-21T10:29:23.055Z,22.50
2019-01-21T10:32:18.238Z,20.20
2019-01-21T10:35:29.057Z,19.00
2019-01-21T10:38:37.841Z,21.13
2019-01-21T10:41:22.066Z,18.40
2019-01-21T10:44:11.045Z,17.93
2019-01-21T10:47:12.105Z,20.17
2019-01-21T10:50:14.130Z,20.97
2019-01-21T10:53:27.046Z,18.60
2019-01-21T10:56:47.273Z,19.83
2019-01-21T10:59:35.319Z,19.50
2019-01-21T11:02:47.895Z,20.33
2019-01-21T11:05:54.228Z,20.07
2019-01-21T11:09:26.832Z,18.20
2019-01-21T11:12:35.634Z,18.03
2019-01-21T11:15:39.571Z,18.90
2019-01-21T11:18:42.001Z,18.83
2019-01-21T11:21:51.875Z,18.93
2019-01-21T11:24:55.030Z,18.10
2019-01-21T11:28:01.833Z,18.10
2019-01-21T11:31:17.987Z,18.13
2019-01-21T11:34:26.460Z,19.27
2019-01-21T11:37:31.797Z,17.93
2019-01-21T11:40:44.750Z,16.70
2019-01-21T11:43:57.523Z,17.13
2019-01-21T11:47:12.468Z,18.27
2019-01-21T11:50:20.905Z,14.03
2019-01-21T11:53:16.815Z,15.47
2019-01-21T11:56:30.100Z,16.60
2019-01-21T11:59:47.446Z,16.50
2019-01-21T12:02:45.343Z,16.40
2019-01-21T12:05:24.886Z,16.43
2019-01-21T12:09:00.196Z,17.13
2019-01-21T12:12:13.282Z,17.37
2019-01-21T12:15:38.193Z,17.60
2019-01-21T12:18:33.721Z,17.00
2019-01-21T12:21:40.939Z,17.00
2019-01-21T12:24:32.911Z,15.40
2019-01-21T12:27:55.421Z,16.03
2019-01-21T12:30:39.978Z,14.80
2019-01-21T12:33:31.887Z,15.40
2019-01-21T12:36:33.076Z,16.23
2019-01-21T12:39:22.657Z,14.13
2019-01-21T12:42:24.065Z,15.43
2019-01-21T12:45:53.869Z,15.10
2019-01-21T12:49:15.274Z,14.73
2019-01-21T12:52:00.997Z,14.43
2019-01-21T12:54:59.214Z,13.60
2019-01-21T12:57:56.340Z,14.57
2019-01-21T13:00:53.960Z,14.83
2019-01-21T13:03:44.315Z,14.00
2019-01-21T13:07:04.240Z,13.97
2019-01-21T13:09:45.329Z,14.57
2019-01-21T13:12:42.677Z,15.60
2019-01-21T13:15:27.526Z,14.87
2019-01-21T13:18:30.547Z,15.97
2019-01-21T13:21:36.628Z,15.90
2019-01-21T13:24:53.554Z,16.97
2019-01-21T13:27:52.740Z,17.27
2019-01-21T13:30:59.415Z,17.57
2019-01-21T13:33:56.312Z,17.77
2019-01-21T13:37:20.776Z,19.50
2019-01-21T13:40:12.907Z,26.80
2019-01-21T13:43:05.777Z,22.97
2019-01-21T13:46:04.826Z,24.37
2019-01-21T13:49:07.464Z,24.70
2019-01-21T13:52:42.657Z,26.90
2019-01-21T13:55:33.337Z,24.17
2019-01-21T13:59:11.484Z,27.07
2019-01-21T14:02:08.315Z,24.63
2019-01-21T14:05:09.928Z,23.90
2019-01-21T14:08:03.290Z,22.53
2019-01-21T14:10:59.027Z,26.27
2019-01-21T14:14:01.394Z,26.33
2019-01-21T14:17:03.681Z,23.67
2019-01-21T14:19:52.698Z,23.77
2019-01-21T14:22:50.756Z,21.63
2019-01-21T14:25:49.497Z,25.77
2019-01-21T14:29:00.861Z,28.97
2019-01-21T14:32:26.147Z,25.47
2019-01-21T14:35:07.427Z,22.90
2019-01-21T14:38:15.821Z,27.40
2019-01-21T14:41:29.917Z,23.73
2019-01-21T14:44:33.798Z,21.63
2019-01-21T14:47:37.024Z,22.13
2019-01-21T14:50:34.752Z,23.10
2019-01-21T14:53:39.224Z,25.33
2019-01-21T14:56:42.318Z,26.23
2019-01-21T14:59:43.178Z,23.00
2019-01-21T15:02:46.156Z,26.20
2019-01-21T15:06:03.175Z,24.80
2019-01-21T15:08:57.875Z,25.03
2019-01-21T15:12:07.630Z,26.47
2019-01-21T15:15:14.451Z,30.07
2019-01-21T15:18:15.649Z,30.87
2019-01-21T15:21:04.201Z,26.03
2019-01-21T15:24:11.094Z,25.67
2019-01-21T15:27:03.982Z,26.43
2019-01-21T15:29:59.844Z,28.20
2019-01-21T15:32:54.954Z,31.23
2019-01-21T15:36:11.979Z,44.20
2019-01-21T15:39:03.773Z,47.67
2019-01-21T15:41:44.592Z,46.20
2019-01-21T15:44:33.022Z,45.43
2019-01-21T15:47:35.978Z,45.77
2019-01-21T15:50:41.085Z,44.10
2019-01-21T15:53:31.014Z,43.73
2019-01-21T15:56:39.756Z,41.20
2019-01-21T15:59:49.166Z,39.43
2019-01-21T16:02:31.383Z,36.43
2019-01-21T16:05:23.860Z,37.83
2019-01-21T16:08:21.248Z,35.90
2019-01-21T16:11:38.230Z,32.93
2019-01-21T16:14:26.136Z,34.63
2019-01-21T16:17:22.581Z,35.23
2019-01-21T16:20:01.005Z,35.70
2019-01-21T16:23:09.894Z,36.90
2019-01-21T16:26:23.851Z,35.67
2019-01-21T16:29:32.620Z,37.87
2019-01-21T16:32:52.780Z,37.80
2019-01-21T16:36:11.068Z,51.00
2019-01-21T16:39:16.957Z,70.90
2019-01-21T16:42:13.078Z,52.77
2019-01-21T16:44:44.995Z,46.73
2019-01-21T16:47:15.547Z,44.23
2019-01-21T16:49:46.219Z,45.57
2019-01-21T16:52:16.738Z,46.93
2019-01-21T16:54:47.156Z,49.63
2019-01-21T16:57:17.628Z,49.23
2019-01-21T16:59:48.084Z,53.83
2019-01-21T17:02:18.500Z,48.87
2019-01-21T17:04:49.069Z,44.03
2019-01-21T17:07:19.493Z,45.00
2019-01-21T17:09:50.052Z,43.73
2019-01-21T17:12:20.508Z,43.13
2019-01-21T17:14:57.485Z,42.40
2019-01-21T17:17:23.117Z,43.67
2019-01-21T17:19:53.577Z,42.87
2019-01-21T17:22:24.049Z,41.30
2019-01-21T17:24:54.485Z,42.10
2019-01-21T17:27:24.939Z,40.07
2019-01-21T17:29:55.488Z,38.60
2019-01-21T17:32:25.905Z,37.80
2019-01-21T17:34:56.834Z,38.13
2019-01-21T17:37:27.278Z,36.90
2019-01-21T17:39:57.836Z,39.43
2019-01-21T17:42:28.255Z,34.83
2019-01-21T17:44:58.709Z,35.27
2019-01-21T17:47:29.129Z,35.13
2019-01-21T17:49:59.692Z,34.67
2019-01-21T17:52:30.109Z,33.20
2019-01-21T17:55:00.576Z,31.63
2019-01-21T17:57:31.005Z,31.70
2019-01-21T18:00:01.465Z,30.13
2019-01-21T18:02:31.888Z,30.23
2019-01-21T18:05:02.308Z,28.97
2019-01-21T18:07:32.769Z,29.07
2019-01-21T18:10:03.188Z,29.13
2019-01-21T18:12:33.660Z,28.00
2019-01-21T18:15:04.536Z,29.77
2019-01-21T18:17:34.987Z,29.43
2019-01-21T18:20:07.845Z,34.00
2019-01-21T18:22:38.318Z,23.83
2019-01-21T18:25:10.092Z,21.50
2019-01-21T18:27:40.615Z,19.63
2019-01-21T18:30:17.676Z,18.63
2019-01-21T18:32:48.298Z,17.67
2019-01-21T18:35:18.747Z,16.70
2019-01-21T18:37:49.267Z,17.83
2019-01-21T18:40:20.791Z,16.50
2019-01-21T18:42:51.790Z,16.83
2019-01-21T18:45:24.928Z,17.80
2019-01-21T18:47:55.509Z,17.40
2019-01-21T18:50:26.094Z,16.90
2019-01-21T18:52:56.664Z,17.23
2019-01-21T18:55:27.185Z,15.90
2019-01-21T18:57:57.677Z,16.10
2019-01-21T19:00:28.232Z,16.60
2019-01-21T19:02:58.683Z,16.33
2019-01-21T19:05:29.203Z,16.30
2019-01-21T19:07:59.672Z,16.47
2019-01-21T19:10:30.136Z,14.83
2019-01-21T19:13:00.609Z,15.57
2019-01-21T19:15:32.778Z,15.07
2019-01-21T19:18:03.695Z,15.80
2019-01-21T19:20:34.098Z,16.47
2019-01-21T19:23:04.664Z,16.23
2019-01-21T19:25:35.229Z,16.93
2019-01-21T19:28:05.851Z,16.30
2019-01-21T19:30:36.330Z,16.97
2019-01-21T19:33:06.854Z,17.93
2019-01-21T19:35:38.646Z,17.03
2019-01-21T19:38:09.148Z,16.77
2019-01-21T19:40:39.622Z,17.07
2019-01-21T19:43:10.026Z,16.27
2019-01-21T19:45:40.488Z,17.43
2019-01-21T19:48:11.006Z,17.20
2019-01-21T19:50:41.436Z,21.20
2019-01-21T19:53:11.893Z,16.60
2019-01-21T19:55:43.955Z,15.93
2019-01-21T19:58:14.889Z,16.33
2019-01-21T20:00:45.414Z,16.53
2019-01-21T20:03:15.935Z,16.63
2019-01-21T20:05:46.499Z,17.10
2019-01-21T20:08:16.916Z,16.83
2019-01-21T20:10:47.386Z,16.83
2019-01-21T20:13:17.811Z,17.00
2019-01-21T20:15:48.243Z,16.50
2019-01-21T20:18:18.709Z,16.37
2019-01-21T20:20:49.116Z,17.87
2019-01-21T20:23:19.594Z,17.93
2019-01-21T20:25:50.008Z,17.40
2019-01-21T20:28:20.435Z,18.13
2019-01-21T20:30:50.856Z,17.77
2019-01-21T20:33:21.305Z,18.30
2019-01-21T20:35:51.737Z,17.17
2019-01-21T20:38:22.201Z,17.77
2019-01-21T20:40:52.631Z,17.07
2019-01-21T20:43:23.087Z,17.90
2019-01-21T20:45:53.506Z,17.40
2019-01-21T20:48:23.943Z,18.13
2019-01-21T20:50:54.452Z,17.53
2019-01-21T20:53:24.904Z,18.30
2019-01-21T20:55:55.338Z,17.70
2019-01-21T20:58:25.896Z,17.73
2019-01-21T21:00:56.428Z,17.63
2019-01-21T21:03:26.900Z,17.57
2019-01-21T21:05:57.336Z,17.90
2019-01-21T21:08:27.796Z,18.40
2019-01-21T21:10:58.267Z,19.53
2019-01-21T21:13:28.691Z,18.30
2019-01-21T21:15:59.116Z,18.97
2019-01-21T21:18:29.584Z,18.60
2019-01-21T21:21:00.055Z,18.73
2019-01-21T21:23:30.525Z,19.50
2019-01-21T21:26:00.976Z,19.83
2019-01-21T21:28:31.614Z,19.30
2019-01-21T21:31:02.042Z,19.07
2019-01-21T21:33:32.517Z,18.73
2019-01-21T21:36:02.945Z,17.57
2019-01-21T21:38:33.398Z,18.47
2019-01-21T21:41:04.241Z,18.90
2019-01-21T21:43:34.664Z,20.60
2019-01-21T21:46:05.261Z,18.37
2019-01-21T21:48:35.711Z,17.27
2019-01-21T21:51:06.145Z,17.50
2019-01-21T21:53:36.784Z,17.07
2019-01-21T21:56:07.205Z,16.67
2019-01-21T21:58:37.683Z,18.10
2019-01-21T22:01:08.244Z,16.60
2019-01-21T22:03:38.650Z,16.00
2019-01-21T22:06:09.230Z,17.37
2019-01-21T22:08:39.685Z,17.43
2019-01-21T22:11:10.110Z,16.93
2019-01-21T22:13:40.685Z,17.00
2019-01-21T22:16:11.104Z,16.63
2019-01-21T22:18:41.562Z,16.73
2019-01-21T22:21:11.983Z,17.37
2019-01-21T22:23:42.441Z,16.70
2019-01-21T22:26:12.901Z,16.00
2019-01-21T22:28:43.634Z,16.43
2019-01-21T22:31:14.059Z,15.83
2019-01-21T22:33:44.516Z,16.93
2019-01-21T22:36:14.948Z,16.03
2019-01-21T22:38:45.409Z,15.90
2019-01-21T22:41:15.868Z,16.27
2019-01-21T22:43:46.276Z,16.57
2019-01-21T22:46:16.693Z,16.47
2019-01-21T22:48:47.112Z,16.37
2019-01-21T22:51:17.637Z,14.67
2019-01-21T22:53:48.110Z,16.17
2019-01-21T22:56:18.530Z,16.63
2019-01-21T22:58:48.959Z,16.53
2019-01-21T23:01:24.641Z,16.13
2019-01-21T23:03:55.241Z,17.07
2019-01-21T23:06:25.795Z,17.20
2019-01-21T23:08:56.253Z,16.50
2019-01-21T23:11:26.665Z,15.97
2019-01-21T23:13:57.080Z,17.43
2019-01-21T23:16:27.539Z,17.10
2019-01-21T23:18:57.967Z,16.83
2019-01-21T23:21:28.374Z,17.40
2019-01-21T23:23:58.835Z,17.00
2019-01-21T23:26:29.235Z,16.20
2019-01-21T23:28:59.800Z,17.33
2019-01-21T23:31:30.272Z,16.37
2019-01-21T23:34:00.741Z,15.97
2019-01-21T23:36:31.233Z,17.07
2019-01-21T23:39:01.935Z,17.67
2019-01-21T23:41:32.409Z,17.80
2019-01-21T23:44:02.915Z,17.60
2019-01-21T23:46:33.366Z,19.47
2019-01-21T23:49:03.777Z,17.60
2019-01-21T23:51:34.475Z,18.27
2019-01-21T23:54:05.028Z,19.03
2019-01-21T23:56:35.454Z,19.10
2019-01-21T23:59:06.019Z,18.63
